Time;durP1;ratioP1;P1;durP2;ratioP2;P2;SDS_P1;SDS_P2;PMS_P1;PMS_P2;Temp;Humidity;BMP_temperature;BMP_pressure;BME280_temperature;BME280_humidity;BME280_pressure;Samples;Min_cycle;Max_cycle;Signal;HPM_P1;HPM_P2
2023/03/11 00:00:43;;;;;;;25.60;14.30;;;;;;;14.90;40.36;98603.45;108408;1252;73672;-67
2023/03/11 00:03:15;;;;;;;41.40;22.70;;;;;;;14.46;41.13;98601.34;108381;1252;70422;-66
2023/03/11 00:05:44;;;;;;;61.00;32.30;;;;;;;14.06;41.89;98594.15;108237;1253;73638;-65
2023/03/11 00:08:20;;;;;;;117.50;54.80;;;;;;;14.01;41.99;98596.30;108168;1252;62584;-66
2023/03/11 00:10:54;;;;;;;;;;;;;;;14.00;42.08;98597.84;108293;1252;60774;-66
2023/03/11 00:13:27;;;;;;;41.90;23.00;;;;;;;13.63;42.62;98594.38;108203;1253;75126;-65
2023/03/11 00:15:55;;;;;;;35.40;19.20;;;;;;;13.64;42.83;98593.42;108259;1253;71507;-65
2023/03/11 00:18:30;;;;;;;46.10;22.80;;;;;;;14.07;42.22;98585.08;108214;1253;73615;-65
2023/03/11 00:20:59;;;;;;;46.50;24.10;;;;;;;14.26;41.75;98583.52;108249;1253;60331;-65
2023/03/11 00:23:27;;;;;;;44.00;21.90;;;;;;;14.40;41.58;98576.19;108329;1253;61240;-65
2023/03/11 00:25:58;;;;;;;40.00;17.90;;;;;;;14.73;41.07;98573.67;108315;1253;74101;-65
2023/03/11 00:28:28;;;;;;;36.00;19.20;;;;;;;14.62;41.18;98569.77;108237;1253;70975;-65
2023/03/11 00:30:56;;;;;;;40.30;21.00;;;;;;;14.77;40.87;98571.94;108160;1256;73892;-65
2023/03/11 00:33:28;;;;;;;41.20;20.70;;;;;;;14.70;41.04;98572.86;108181;1253;61755;-66
2023/03/11 00:35:57;;;;;;;57.60;32.30;;;;;;;14.61;41.21;98568.77;108191;1253;60540;-66
2023/03/11 00:38:26;;;;;;;37.70;20.60;;;;;;;14.78;41.00;98566.02;108121;1256;75337;-67
2023/03/11 00:40:54;;;;;;;44.10;19.30;;;;;;;14.67;40.96;98562.47;108147;1253;71521;-66
2023/03/11 00:43:22;;;;;;;39.10;17.30;;;;;;;14.57;41.40;98558.66;108154;1253;71899;-66
2023/03/11 00:45:51;;;;;;;32.80;17.50;;;;;;;14.43;41.61;98557.45;108242;1253;60457;-64
2023/03/11 00:48:22;;;;;;;31.90;17.60;;;;;;;14.16;42.04;98553.17;108131;1253;61347;-65
2023/03/11 00:50:50;;;;;;;33.80;18.10;;;;;;;14.29;41.88;98545.45;108217;1253;75096;-64
2023/03/11 00:53:24;;;;;;;32.40;17.50;;;;;;;14.11;42.08;98543.49;108219;1253;71518;-61
2023/03/11 00:55:52;;;;;;;34.20;17.90;;;;;;;14.45;41.66;98537.84;108270;1253;71787;-65
2023/03/11 00:58:26;;;;;;;31.70;18.00;;;;;;;14.80;41.03;98531.46;108106;1253;62294;-65
2023/03/11 01:00:56;;;;;;;34.50;18.60;;;;;;;15.00;40.46;98527.55;108205;1253;60338;-66
2023/03/11 01:03:25;;;;;;;32.80;17.60;;;;;;;14.88;40.84;98524.59;108171;1253;74977;-65
2023/03/11 01:05:54;;;;;;;35.00;17.80;;;;;;;15.25;40.11;98518.59;108221;1253;70604;-65
2023/03/11 01:08:26;;;;;;;27.50;15.30;;;;;;;15.28;39.99;98517.70;108162;1253;72470;-64
2023/03/11 01:10:56;;;;;;;32.30;16.40;;;;;;;15.21;40.26;98518.60;108156;1253;60806;-66
2023/03/11 01:13:25;;;;;;;34.60;14.10;;;;;;;15.38;39.86;98509.59;108191;1253;60312;-66
2023/03/11 01:15:55;;;;;;;35.70;18.20;;;;;;;15.15;40.49;98510.43;108190;1253;73051;-66
2023/03/11 01:18:24;;;;;;;29.20;16.50;;;;;;;15.26;40.17;98507.92;108105;1253;70181;-66
2023/03/11 01:20:53;;;;;;;29.80;16.70;;;;;;;15.21;40.21;98501.96;108203;1253;73745;-65
2023/03/11 01:23:21;;;;;;;30.00;15.20;;;;;;;15.29;40.11;98505.40;108228;1253;61391;-65
2023/03/11 01:25:49;;;;;;;31.40;17.50;;;;;;;15.29;39.95;98504.81;108230;1253;61590;-65
2023/03/11 01:28:18;;;;;;;28.60;15.40;;;;;;;15.40;39.71;98495.98;108201;1253;75095;-64
2023/03/11 01:30:46;;;;;;;28.80;15.90;;;;;;;15.42;39.65;98495.06;108210;1253;70608;-66
2023/03/11 01:33:16;;;;;;;31.20;17.20;;;;;;;15.67;39.13;98495.48;108121;1253;73305;-66
2023/03/11 01:35:44;;;;;;;30.90;14.80;;;;;;;15.62;39.22;98492.25;108190;1253;62068;-65
2023/03/11 01:38:14;;;;;;;31.80;15.50;;;;;;;15.51;39.51;98491.70;108215;1253;61199;-65
2023/03/11 01:40:44;;;;;;;34.50;16.80;;;;;;;15.57;39.25;98490.15;108105;1253;72949;-65
2023/03/11 01:43:40;;;;;;;25.10;14.40;;;;;;;15.20;39.63;98490.53;108102;1253;70588;-66
2023/03/11 01:46:32;;;;;;;27.40;16.00;;;;;;;15.03;40.06;98491.08;108081;1253;73343;-66
2023/03/11 01:49:01;;;;;;;29.40;16.40;;;;;;;15.43;39.49;98478.41;108199;1253;60371;-67
2023/03/11 01:51:39;;;;;;;32.50;17.00;;;;;;;15.19;39.74;98479.86;108130;1253;59682;-65
2023/03/11 01:54:28;;;;;;;30.60;17.40;;;;;;;15.25;39.70;98476.20;108199;1253;73020;-65
2023/03/11 01:56:57;;;;;;;35.30;18.20;;;;;;;14.77;40.41;98478.70;108196;1254;71521;-65
2023/03/11 01:59:32;;;;;;;29.50;16.00;;;;;;;15.03;40.11;98475.00;108132;1253;73931;-66
2023/03/11 02:02:05;;;;;;;33.40;18.10;;;;;;;15.17;40.03;98476.17;108278;1253;62483;-65
2023/03/11 02:04:34;;;;;;;32.20;17.50;;;;;;;15.00;40.08;98473.48;108279;1252;60283;-65
2023/03/11 02:07:03;;;;;;;29.50;16.60;;;;;;;14.83;40.41;98467.80;108432;1252;74246;-65
2023/03/11 02:09:31;;;;;;;31.50;17.50;;;;;;;14.94;40.39;98469.38;108262;1252;71607;-64
2023/03/11 02:12:01;;;;;;;35.40;17.40;;;;;;;15.00;40.34;98466.09;108239;1252;73842;-66
2023/03/11 02:14:30;;;;;;;32.00;16.20;;;;;;;15.06;40.20;98460.96;108209;1253;60874;-64
2023/03/11 02:17:00;;;;;;;34.00;16.00;;;;;;;15.55;39.40;98454.39;108344;1252;60533;-66
2023/03/11 02:19:31;;;;;;;32.20;17.00;;;;;;;15.31;39.71;98454.06;108245;1253;74120;-65
2023/03/11 02:22:00;;;;;;;28.50;15.30;;;;;;;15.44;39.52;98449.17;108265;1253;70958;-64
2023/03/11 02:24:34;;;;;;;35.90;17.70;;;;;;;14.55;40.79;98454.77;108355;1256;72842;-65
2023/03/11 02:27:11;;;;;;;35.30;17.50;;;;;;;14.22;41.70;98453.34;108359;1253;61847;-66
2023/03/11 02:29:39;;;;;;;36.00;19.50;;;;;;;14.45;41.20;98447.61;108292;1253;60771;-65
2023/03/11 02:32:08;;;;;;;34.60;19.10;;;;;;;14.72;40.92;98445.82;108083;1259;75471;-65
2023/03/11 02:34:38;;;;;;;;;;;;;;;15.42;39.75;98444.77;108248;1253;71248;-67
2023/03/11 02:37:11;;;;;;;33.10;16.20;;;;;;;15.45;39.56;98438.95;108287;1252;72071;-65
2023/03/11 02:39:43;;;;;;;32.10;17.30;;;;;;;15.65;39.18;98441.87;108251;1252;60860;-66
2023/03/11 02:42:27;;;;;;;35.70;17.10;;;;;;;15.37;39.57;98444.96;108307;1252;61324;-65
2023/03/11 02:45:02;;;;;;;34.60;17.50;;;;;;;15.34;39.69;98442.42;108269;1253;74190;-65
2023/03/11 02:47:31;;;;;;;36.30;18.80;;;;;;;15.13;39.95;98440.25;108117;1253;71322;-65
2023/03/11 02:50:00;;;;;;;37.40;18.30;;;;;;;15.19;39.93;98439.38;108174;1252;74037;-66
2023/03/11 02:52:31;;;;;;;34.30;18.70;;;;;;;15.08;40.06;98437.61;108200;1253;60473;-65
2023/03/11 02:54:59;;;;;;;36.00;18.30;;;;;;;15.23;39.90;98434.83;108254;1252;61543;-66
2023/03/11 02:57:28;;;;;;;39.50;18.40;;;;;;;14.88;40.44;98434.16;108272;1252;74652;-65
2023/03/11 03:00:01;;;;;;;39.10;18.90;;;;;;;14.67;40.76;98429.50;108261;1252;70597;-65
2023/03/11 03:02:29;;;;;;;39.00;20.60;;;;;;;14.61;40.87;98433.48;108109;1253;70738;-65
2023/03/11 03:04:58;;;;;;;31.20;17.00;;;;;;;14.65;41.01;98431.93;108112;1252;62108;-65
2023/03/11 03:07:27;;;;;;;32.50;19.00;;;;;;;14.68;40.94;98432.05;108108;1253;61019;-64
2023/03/11 03:09:55;;;;;;;44.80;21.40;;;;;;;14.75;40.70;98428.69;108217;1253;74824;-65
2023/03/11 03:12:26;;;;;;;35.30;19.70;;;;;;;14.97;40.44;98428.65;108120;1253;71443;-66
2023/03/11 03:14:57;;;;;;;36.00;17.90;;;;;;;15.49;39.73;98423.43;108217;1253;73584;-66
2023/03/11 03:17:25;;;;;;;39.20;20.60;;;;;;;15.93;38.73;98417.45;108178;1253;62194;-65
2023/03/11 03:19:54;;;;;;;43.90;22.00;;;;;;;15.98;38.64;98413.29;108203;1253;60435;-66
2023/03/11 03:22:26;;;;;;;41.20;21.50;;;;;;;15.38;39.33;98408.62;108189;1253;74657;-66
2023/03/11 03:24:54;;;;;;;34.50;17.80;;;;;;;15.79;38.85;98405.54;108136;1253;71117;-64
2023/03/11 03:27:23;;;;;;;41.20;21.20;;;;;;;15.11;39.79;98402.34;108232;1253;70835;-66
2023/03/11 03:29:51;;;;;;;41.50;20.80;;;;;;;14.70;40.59;98397.48;108265;1253;60301;-67
2023/03/11 03:32:21;;;;;;;39.20;22.00;;;;;;;14.49;40.87;98392.63;108307;1253;61947;-66
2023/03/11 03:34:50;;;;;;;32.20;16.90;;;;;;;14.21;41.49;98389.69;108252;1253;74768;-67
2023/03/11 03:37:19;;;;;;;44.20;22.50;;;;;;;14.28;41.47;98392.52;108155;1253;70120;-64
2023/03/11 03:39:48;;;;;;;46.20;22.50;;;;;;;14.71;40.65;98383.63;108218;1253;70658;-65
2023/03/11 03:42:16;;;;;;;50.90;24.70;;;;;;;14.86;40.44;98378.27;108250;1253;60593;-66
2023/03/11 03:44:46;;;;;;;41.60;20.30;;;;;;;14.39;41.27;98377.15;108171;1252;60566;-65
2023/03/11 03:47:14;;;;;;;35.80;18.90;;;;;;;14.42;41.20;98375.30;108220;1254;74405;-65
2023/03/11 03:49:43;;;;;;;39.20;19.50;;;;;;;14.04;41.84;98368.46;108274;1253;71298;-65
2023/03/11 03:52:11;;;;;;;48.10;22.90;;;;;;;14.21;41.77;98366.59;108151;1252;73487;-64
2023/03/11 03:54:40;;;;;;;46.40;23.10;;;;;;;14.49;41.40;98361.70;108321;1252;61854;-64
2023/03/11 03:57:08;;;;;;;46.60;23.10;;;;;;;14.87;40.77;98352.63;108293;1256;61065;-65
2023/03/11 03:59:41;;;;;;;52.80;23.90;;;;;;;14.55;41.23;98346.58;108242;1253;74814;-65
2023/03/11 04:02:11;;;;;;;41.50;22.60;;;;;;;14.59;41.22;98343.73;108305;1253;71587;-65
2023/03/11 04:04:40;;;;;;;56.20;24.50;;;;;;;14.36;41.71;98340.35;108255;1253;73822;-65
2023/03/11 04:07:08;;;;;;;52.70;24.50;;;;;;;14.48;41.34;98334.02;108217;1253;62437;-65
2023/03/11 04:09:41;;;;;;;43.30;22.20;;;;;;;14.36;41.57;98326.34;108262;1252;60536;-65
2023/03/11 04:12:13;;;;;;;48.10;25.80;;;;;;;14.45;41.60;98321.08;108284;1252;73678;-66
2023/03/11 04:14:43;;;;;;;52.90;27.20;;;;;;;14.22;41.91;98320.65;108302;1253;71436;-66
2023/03/11 04:17:12;;;;;;;51.30;24.50;;;;;;;14.09;42.31;98315.14;108223;1252;73708;-65
2023/03/11 04:19:41;;;;;;;50.20;26.90;;;;;;;14.06;42.50;98310.09;108148;1252;60623;-64
2023/03/11 04:22:10;;;;;;;51.60;26.00;;;;;;;14.01;42.63;98310.34;108165;1252;60479;-65
2023/03/11 04:24:39;;;;;;;54.20;26.50;;;;;;;13.86;42.90;98308.83;108291;1253;75021;-65
2023/03/11 04:27:07;;;;;;;45.90;24.10;;;;;;;13.89;42.92;98304.52;108216;1256;70379;-66
2023/03/11 04:29:36;;;;;;;50.90;26.70;;;;;;;14.24;42.32;98294.84;108122;1257;73981;-65
2023/03/11 04:32:05;;;;;;;46.30;25.50;;;;;;;14.16;42.46;98295.19;108142;1253;60337;-65
2023/03/11 04:34:35;;;;;;;47.10;23.20;;;;;;;14.80;41.39;98285.19;108268;1253;61086;-67
2023/03/11 04:37:04;;;;;;;49.80;26.40;;;;;;;14.53;41.73;98279.29;108211;1253;74305;-66
2023/03/11 04:39:33;;;;;;;56.20;27.70;;;;;;;14.76;41.36;98274.67;108175;1253;71367;-66
2023/03/11 04:42:01;;;;;;;48.40;24.40;;;;;;;14.25;42.13;98276.98;108212;1256;73453;-64
2023/03/11 04:44:34;;;;;;;47.00;23.80;;;;;;;14.38;42.11;98273.45;108176;1253;60937;-65
2023/03/11 04:47:06;;;;;;;50.20;25.80;;;;;;;14.77;41.55;98268.48;108142;1257;60451;-65
2023/03/11 04:49:35;;;;;;;46.50;24.90;;;;;;;14.51;41.74;98265.82;108172;1255;74879;-64
2023/03/11 04:52:03;;;;;;;53.80;26.70;;;;;;;14.45;41.95;98269.98;108176;1253;70472;-65
2023/03/11 04:54:32;;;;;;;44.90;24.00;;;;;;;14.40;42.10;98263.39;108204;1253;73652;-67
2023/03/11 04:57:01;;;;;;;49.80;25.50;;;;;;;14.12;42.67;98257.40;108187;1253;60370;-65
2023/03/11 04:59:29;;;;;;;48.70;23.40;;;;;;;14.30;42.44;98259.96;108185;1254;60601;-65
2023/03/11 05:02:00;;;;;;;53.20;26.40;;;;;;;14.64;41.89;98259.17;108203;1253;73927;-65
2023/03/11 05:04:29;;;;;;;47.40;26.00;;;;;;;14.82;41.50;98254.98;108167;1253;71224;-65
2023/03/11 05:06:57;;;;;;;51.60;26.50;;;;;;;14.70;41.67;98251.80;108085;1254;72617;-67
2023/03/11 05:09:27;;;;;;;49.80;26.00;;;;;;;14.46;42.09;98247.54;108241;1253;61295;-63
2023/03/11 05:11:55;;;;;;;49.00;26.00;;;;;;;14.48;42.29;98244.41;108144;1253;60788;-65
2023/03/11 05:14:25;;;;;;;52.90;25.90;;;;;;;14.78;41.77;98242.45;108086;1253;73404;-66
2023/03/11 05:16:55;;;;;;;44.30;23.70;;;;;;;14.69;41.90;98232.20;108012;1253;70574;-66
2023/03/11 05:19:30;;;;;;;48.70;24.60;;;;;;;14.77;41.94;98226.80;108169;1257;73012;-66
2023/03/11 05:22:01;;;;;;;46.60;25.80;;;;;;;15.04;41.62;98216.01;108113;1257;62208;-68
2023/03/11 05:24:30;;;;;;;47.40;24.50;;;;;;;15.37;41.12;98215.95;108205;1253;60348;-61
2023/03/11 05:27:03;;;;;;;46.30;24.80;;;;;;;15.52;41.22;98208.11;108156;1256;74818;-64
2023/03/11 05:29:34;;;;;;;;;;;;;;;15.55;41.36;98200.05;108234;1254;70182;-66
2023/03/11 05:32:02;;;;;;;39.70;22.20;;;;;;;15.56;41.35;98197.98;108179;1254;72923;-65
2023/03/11 05:34:32;;;;;;;39.60;21.50;;;;;;;15.37;40.96;98198.27;108278;1253;61215;-65
2023/03/11 05:37:01;;;;;;;38.20;21.30;;;;;;;15.63;40.67;98193.95;108237;1253;61294;-65
2023/03/11 05:39:36;;;;;;;39.90;22.40;;;;;;;15.72;40.47;98190.10;108201;1253;75037;-64
2023/03/11 05:42:06;;;;;;;36.30;20.70;;;;;;;15.74;40.40;98194.04;108278;1253;70651;-65
2023/03/11 05:44:35;;;;;;;40.70;22.30;;;;;;;15.99;40.28;98192.63;108276;1256;73924;-66
2023/03/11 05:47:03;;;;;;;34.60;19.30;;;;;;;15.85;40.57;98189.66;108203;1256;61242;-64
2023/03/11 05:49:32;;;;;;;36.20;19.50;;;;;;;16.31;39.77;98186.04;108304;1253;61520;-66
2023/03/11 05:52:01;;;;;;;38.90;21.30;;;;;;;16.04;40.23;98185.61;108293;1253;72276;-67
2023/03/11 05:54:30;;;;;;;31.40;17.90;;;;;;;16.34;39.84;98187.38;108244;1254;69625;-66
2023/03/11 05:57:04;;;;;;;29.10;17.50;;;;;;;16.82;39.58;98184.73;108227;1254;73672;-67
2023/03/11 05:59:34;;;;;;;36.10;19.50;;;;;;;17.41;38.53;98179.77;108201;1253;61229;-67
2023/03/11 06:02:04;;;;;;;37.90;20.70;;;;;;;17.20;38.42;98178.34;108226;1256;60556;-66
2023/03/11 06:04:34;;;;;;;35.90;19.20;;;;;;;17.50;37.98;98180.02;108225;1253;74155;-68
2023/03/11 06:07:03;;;;;;;35.40;19.70;;;;;;;18.04;37.30;98171.36;108244;1252;70713;-67
2023/03/11 06:09:37;;;;;;;31.90;17.90;;;;;;;18.10;37.10;98169.63;108186;1253;72255;-66
2023/03/11 06:12:08;;;;;;;36.20;18.50;;;;;;;18.16;36.91;98171.29;108217;1254;62304;-67
2023/03/11 06:14:52;;;;;;;27.00;14.30;;;;;;;18.47;36.25;98166.27;108209;1256;60382;-65
2023/03/11 06:17:21;;;;;;;;;;;;;;;18.24;36.36;98162.13;108315;1253;73101;-66
2023/03/11 06:19:53;;;;;;;31.40;19.00;;;;;;;18.14;36.56;98161.38;108259;1253;70611;-66
2023/03/11 06:22:21;;;;;;;38.50;20.10;;;;;;;17.95;36.84;98163.80;108325;1256;72890;-68
2023/03/11 06:24:49;;;;;;;35.70;18.70;;;;;;;17.40;37.78;98163.47;108187;1253;61559;-67
2023/03/11 06:27:18;;;;;;;35.20;19.10;;;;;;;17.18;38.27;98161.51;108160;1253;60440;-66
2023/03/11 06:29:51;;;;;;;41.70;18.60;;;;;;;17.71;37.67;98158.98;108090;1258;74974;-67
2023/03/11 06:32:19;;;;;;;29.00;17.60;;;;;;;17.86;37.36;98155.76;108107;1253;71578;-69
2023/03/11 06:34:51;;;;;;;31.90;18.30;;;;;;;17.74;37.62;98155.70;108140;1253;72370;-66
2023/03/11 06:37:20;;;;;;;33.30;20.10;;;;;;;17.78;37.73;98160.16;108115;1253;60531;-67
2023/03/11 06:39:52;;;;;;;34.70;20.30;;;;;;;17.76;37.75;98158.00;108150;1255;61613;-67
2023/03/11 06:42:24;;;;;;;35.80;20.70;;;;;;;17.35;38.26;98161.37;108184;1253;73288;-67
2023/03/11 06:44:54;;;;;;;35.60;20.40;;;;;;;17.02;39.09;98159.66;108130;1254;70418;-66
2023/03/11 06:47:24;;;;;;;33.80;19.20;;;;;;;16.86;39.49;98155.77;108164;1256;72538;-67
2023/03/11 06:49:52;;;;;;;36.90;21.20;;;;;;;16.89;39.65;98144.31;108162;1257;61182;-66
2023/03/11 06:52:20;;;;;;;42.30;22.20;;;;;;;16.93;39.65;98137.73;108147;1257;61345;-65
2023/03/11 06:54:48;;;;;;;32.10;18.30;;;;;;;16.48;40.49;98134.90;108213;1256;75082;-66
2023/03/11 06:57:17;;;;;;;38.40;21.50;;;;;;;16.83;40.33;98126.68;108644;1254;70562;-67
2023/03/11 06:59:46;;;;;;;36.30;21.40;;;;;;;16.96;40.17;98123.98;108265;1255;72837;-66
2023/03/11 07:02:18;;;;;;;40.50;21.40;;;;;;;17.55;39.52;98108.63;108303;1254;60918;-66
2023/03/11 07:04:49;;;;;;;38.70;21.50;;;;;;;17.43;39.81;98105.61;108182;1253;60347;-68
2023/03/11 07:07:17;;;;;;;37.40;19.80;;;;;;;17.72;39.85;98100.73;108132;1257;73859;-66
2023/03/11 07:09:49;;;;;;;36.10;21.30;;;;;;;17.95;39.54;98097.73;108133;1255;70288;-67
2023/03/11 07:12:21;;;;;;;38.30;20.50;;;;;;;17.95;39.42;98094.58;108102;1254;72896;-66
2023/03/11 07:14:57;;;;;;;31.80;18.90;;;;;;;18.12;39.16;98082.36;108142;1254;61120;-66
2023/03/11 07:17:29;;;;;;;35.50;20.00;;;;;;;18.57;38.39;98077.48;108050;1257;61370;-68
2023/03/11 07:22:13;;;;;;;37.50;20.30;;;;;;;14.36;45.95;98082.00;104760;1290;599938;-68
2023/03/11 07:24:46;;;;;;;38.70;20.30;;;;;;;15.92;43.10;98077.41;107335;1265;62431;-67
2023/03/11 07:27:14;;;;;;;35.40;21.00;;;;;;;16.20;42.67;98075.08;107253;1266;59738;-67
2023/03/11 07:29:42;;;;;;;44.20;21.60;;;;;;;16.40;42.36;98072.94;107229;1266;72127;-67
2023/03/11 07:32:10;;;;;;;36.30;20.20;;;;;;;17.00;41.38;98068.70;107387;1262;71284;-67
2023/03/11 07:34:39;;;;;;;37.70;22.00;;;;;;;16.99;41.31;98068.61;107241;1263;304498;-69
2023/03/11 07:37:08;;;;;;;36.80;20.80;;;;;;;17.19;41.11;98068.27;107567;1261;59927;-67
2023/03/11 07:39:36;;;;;;;34.30;21.40;;;;;;;17.40;40.71;98068.33;107609;1261;59899;-66
2023/03/11 07:42:06;;;;;;;35.30;20.70;;;;;;;17.41;40.79;98066.70;107564;1260;72216;-66
2023/03/11 07:44:37;;;;;;;39.00;22.60;;;;;;;17.48;40.68;98062.23;107634;1261;70565;-66
2023/03/11 07:47:06;;;;;;;35.00;20.70;;;;;;;17.53;40.75;98060.20;108323;1255;70584;-68
2023/03/11 07:49:34;;;;;;;38.10;21.40;;;;;;;17.60;40.51;98045.10;108285;1252;61554;-67
2023/03/11 07:52:04;;;;;;;34.20;19.40;;;;;;;17.66;40.44;98043.12;108293;1251;61794;-67
2023/03/11 07:54:34;;;;;;;36.80;21.70;;;;;;;17.64;40.64;98042.52;108339;1253;73352;-68
2023/03/11 07:57:02;;;;;;;41.70;21.80;;;;;;;17.72;40.54;98036.86;108267;1253;71365;-66
2023/03/11 07:59:30;;;;;;;38.10;20.50;;;;;;;17.97;40.23;98026.89;108297;1251;72632;-68
2023/03/11 08:02:01;;;;;;;47.00;21.60;;;;;;;17.55;40.79;98018.42;108311;1253;60569;-69
2023/03/11 08:04:30;;;;;;;46.10;23.70;;;;;;;17.64;40.74;98012.38;108341;1252;59874;-66
2023/03/11 08:06:58;;;;;;;40.20;22.70;;;;;;;17.50;40.96;98000.86;108285;1251;73357;-67
2023/03/11 08:09:26;;;;;;;41.10;23.10;;;;;;;17.66;40.67;97999.95;108314;1253;69249;-68
2023/03/11 08:11:58;;;;;;;36.90;21.30;;;;;;;17.70;40.70;97997.95;108046;1253;71940;-67
2023/03/11 08:14:27;;;;;;;46.80;25.40;;;;;;;17.64;40.76;97995.92;108207;1253;62122;-67
2023/03/11 08:16:55;;;;;;;41.00;23.00;;;;;;;17.48;41.20;97992.40;108225;1253;59570;-66
2023/03/11 08:19:23;;;;;;;42.40;22.80;;;;;;;17.39;41.56;97993.75;108184;1253;72460;-66
2023/03/11 08:21:51;;;;;;;41.40;22.30;;;;;;;17.70;41.12;97984.51;108157;1253;70183;-68
2023/03/11 08:24:22;;;;;;;45.60;24.40;;;;;;;17.93;40.92;97980.20;108164;1253;72901;-68
2023/03/11 08:26:51;;;;;;;47.90;27.00;;;;;;;17.69;41.42;97978.71;108176;1253;62070;-67
2023/03/11 08:29:21;;;;;;;56.30;30.20;;;;;;;17.84;41.18;97961.29;108074;1255;61338;-68
2023/03/11 08:31:49;;;;;;;55.20;29.00;;;;;;;17.96;41.21;97951.16;108043;1255;74005;-67
2023/03/11 08:34:20;;;;;;;55.80;30.30;;;;;;;18.30;40.69;97936.80;107971;1254;71571;-66
2023/03/11 08:36:49;;;;;;;51.70;28.80;;;;;;;18.27;40.43;97923.14;107967;1255;73713;-66
2023/03/11 08:39:17;;;;;;;51.10;28.60;;;;;;;18.49;40.15;97928.83;107898;1255;62306;-67
2023/03/11 08:41:48;;;;;;;59.70;31.10;;;;;;;18.40;40.28;97942.75;107947;1255;60303;-67
2023/03/11 08:44:16;;;;;;;58.70;31.20;;;;;;;18.06;40.82;97944.50;108066;1254;74293;-66
2023/03/11 08:46:44;;;;;;;61.90;31.30;;;;;;;17.97;41.13;97936.09;108059;1254;71439;-66
2023/03/11 08:49:14;;;;;;;58.70;30.60;;;;;;;18.17;40.95;97930.15;107984;1255;74579;-65
2023/03/11 08:51:42;;;;;;;59.80;31.70;;;;;;;18.06;40.92;97925.42;107916;1254;62363;-65
2023/03/11 08:54:16;;;;;;;61.00;32.90;;;;;;;18.12;40.83;97918.46;107956;1255;61492;-62
2023/03/11 08:56:46;;;;;;;60.80;33.20;;;;;;;18.48;40.28;97918.93;108003;1256;74298;-67
2023/03/11 08:59:15;;;;;;;59.20;33.30;;;;;;;18.67;40.03;97918.77;108005;1254;70374;-66
2023/03/11 09:01:43;;;;;;;69.50;36.60;;;;;;;18.31;40.65;97915.23;108009;1254;73711;-67
2023/03/11 09:04:11;;;;;;;71.20;38.20;;;;;;;18.02;41.14;97936.42;108007;1254;62320;-68
2023/03/11 09:06:43;;;;;;;72.70;37.50;;;;;;;17.62;42.15;97944.28;107990;1254;60682;-67
2023/03/11 09:09:12;;;;;;;71.40;36.50;;;;;;;17.78;42.17;97932.42;107985;1256;74433;-65
2023/03/11 09:11:40;;;;;;;71.40;39.20;;;;;;;17.97;42.01;97925.56;107975;1256;71732;-68
2023/03/11 09:14:09;;;;;;;79.30;42.50;;;;;;;17.99;41.94;97923.95;108056;1254;73385;-65
2023/03/11 09:16:38;;;;;;;81.00;40.20;;;;;;;18.02;41.99;97924.97;108019;1256;62446;-67
2023/03/11 09:19:06;;;;;;;85.70;42.20;;;;;;;18.01;42.08;97922.23;108039;1256;60565;-66
2023/03/11 09:21:36;;;;;;;80.10;40.00;;;;;;;17.78;42.35;97920.47;108039;1254;74311;-69
2023/03/11 09:24:05;;;;;;;85.40;44.00;;;;;;;17.53;43.07;97912.77;107958;1256;70022;-68
2023/03/11 09:26:33;;;;;;;79.10;41.20;;;;;;;17.55;43.28;97910.73;107995;1258;72891;-66
2023/03/11 09:29:01;;;;;;;77.80;41.60;;;;;;;17.64;43.17;97904.50;108005;1256;60561;-66
2023/03/11 09:31:30;;;;;;;89.80;45.60;;;;;;;17.71;43.16;97896.70;108024;1254;61463;-67
2023/03/11 09:33:58;;;;;;;80.30;41.30;;;;;;;18.16;42.39;97884.16;108059;1254;74137;-67
2023/03/11 09:36:26;;;;;;;98.30;47.80;;;;;;;18.08;42.44;97876.08;107996;1256;70582;-66
2023/03/11 09:38:54;;;;;;;91.40;47.40;;;;;;;17.89;43.15;97871.27;108005;1256;71936;-69
2023/03/11 09:41:35;;;;;;;87.00;47.20;;;;;;;17.72;43.59;97870.34;108065;1254;62470;-67
2023/03/11 09:44:26;;;;;;;95.00;47.20;;;;;;;18.12;42.76;97864.14;108008;1255;60602;-66
2023/03/11 09:47:23;;;;;;;85.30;41.80;;;;;;;18.14;42.84;97861.21;108043;1256;72183;-66
2023/03/11 09:50:19;;;;;;;91.10;47.50;;;;;;;17.81;43.33;97861.65;108071;1256;71021;-68
2023/03/11 09:52:55;;;;;;;97.70;45.70;;;;;;;17.79;43.52;97854.54;108048;1256;72154;-68
2023/03/11 09:55:24;;;;;;;97.30;48.80;;;;;;;17.79;43.51;97839.48;108025;1258;60874;-67
2023/03/11 09:57:53;;;;;;;93.30;49.10;;;;;;;17.91;43.24;97829.95;108058;1255;61359;-67
2023/03/11 10:00:22;;;;;;;97.00;47.30;;;;;;;18.31;42.86;97829.64;108037;1254;73230;-67
2023/03/11 10:02:53;;;;;;;106.10;48.90;;;;;;;18.66;42.29;97828.40;108092;1256;71573;-68
2023/03/11 10:05:32;;;;;;;92.00;44.40;;;;;;;18.11;43.25;97816.27;108025;1255;73896;-67
2023/03/11 10:08:20;;;;;;;101.50;50.10;;;;;;;18.18;43.25;97804.23;107987;1256;62500;-67
2023/03/11 10:11:29;;;;;;;109.80;51.50;;;;;;;18.25;43.10;97786.23;108033;1254;61471;-68
2023/03/11 10:14:19;;;;;;;115.70;52.10;;;;;;;18.09;43.41;97771.36;108013;1256;74020;-67
2023/03/11 10:16:52;;;;;;;100.60;47.40;;;;;;;18.01;43.58;97756.92;108057;1255;71284;-66
2023/03/11 10:20:00;;;;;;;101.30;48.00;;;;;;;18.00;43.52;97767.77;107963;1254;71914;-68
2023/03/11 10:22:59;;;;;;;93.60;46.30;;;;;;;18.00;43.55;97771.84;108048;1258;61771;-68
2023/03/11 10:25:31;;;;;;;105.70;49.50;;;;;;;17.76;44.05;97757.63;108271;1255;60021;-68
2023/03/11 10:28:10;;;;;;;101.60;48.80;;;;;;;17.59;44.42;97762.09;108152;1253;73234;-68
2023/03/11 10:30:50;;;;;;;98.10;45.00;;;;;;;17.30;44.95;97770.98;108180;1255;71553;-69
2023/03/11 10:33:30;;;;;;;97.20;44.00;;;;;;;17.43;45.01;97754.66;108072;1259;72567;-67
2023/03/11 10:36:06;;;;;;;84.20;41.70;;;;;;;17.70;44.46;97741.55;108054;1253;61399;-68
2023/03/11 10:38:41;;;;;;;70.90;35.90;;;;;;;17.77;44.29;97735.63;107948;1253;61579;-68
2023/03/11 10:41:16;;;;;;;69.80;35.60;;;;;;;17.68;44.52;97736.85;108035;1253;74311;-68
2023/03/11 10:43:48;;;;;;;66.60;34.90;;;;;;;17.72;44.43;97740.47;108007;1253;71516;-68
2023/03/11 10:46:24;;;;;;;68.30;36.00;;;;;;;17.54;44.84;97747.66;108149;1253;72589;-67
2023/03/11 10:48:53;;;;;;;72.70;38.10;;;;;;;17.44;45.07;97745.52;108088;1253;62236;-67
2023/03/11 10:51:27;;;;;;;66.10;34.50;;;;;;;17.53;44.96;97737.88;108134;1253;61194;-67
2023/03/11 10:53:56;;;;;;;74.70;37.90;;;;;;;17.61;44.68;97730.03;108190;1253;72149;-67
2023/03/11 10:56:29;;;;;;;66.40;35.40;;;;;;;17.57;44.82;97728.38;108152;1253;71220;-66
2023/03/11 10:58:58;;;;;;;74.60;37.80;;;;;;;17.55;45.11;97728.20;108114;1253;73577;-66
2023/03/11 11:01:27;;;;;;;80.30;40.40;;;;;;;17.81;44.62;97720.55;108150;1253;62061;-70
2023/03/11 11:03:56;;;;;;;75.70;38.60;;;;;;;17.80;44.59;97712.66;108184;1253;61550;-66
2023/03/11 11:06:31;;;;;;;79.10;38.80;;;;;;;17.83;44.77;97710.02;108039;1253;74300;-67
2023/03/11 11:09:19;;;;;;;68.60;37.10;;;;;;;17.79;44.77;97703.93;108151;1253;70213;-66
2023/03/11 11:12:12;;;;;;;72.90;39.20;;;;;;;17.78;44.89;97700.75;108040;1253;73809;-68
2023/03/11 11:14:42;;;;;;;106.40;54.40;;;;;;;17.90;44.79;97694.08;108028;1258;61113;-68
2023/03/11 11:17:28;;;;;;;75.60;38.90;;;;;;;18.10;44.54;97688.16;108155;1253;61624;-66
2023/03/11 11:19:57;;;;;;;64.60;35.00;;;;;;;18.07;44.79;97675.59;107978;1254;73906;-68
2023/03/11 11:22:26;;;;;;;62.10;33.20;;;;;;;18.32;44.30;97667.00;108181;1253;70338;-67
2023/03/11 11:24:54;;;;;;;64.10;34.30;;;;;;;18.39;44.18;97661.99;108036;1253;73941;-67
2023/03/11 11:27:24;;;;;;;60.90;32.30;;;;;;;18.50;44.13;97654.27;108069;1254;60686;-68
2023/03/11 11:30:11;;;;;;;63.20;34.00;;;;;;;18.63;43.88;97643.57;108053;1255;61295;-67